createdAt,value
2018-06-13T00:00:31.511Z,97.61
2018-06-13T00:01:31.506Z,97.42
2018-06-13T00:02:31.508Z,97.71
2018-06-13T00:03:31.504Z,97.61
2018-06-13T00:04:31.500Z,97.90
2018-06-13T00:05:31.500Z,98.57
2018-06-13T00:06:31.489Z,98.66
2018-06-13T00:07:31.516Z,97.90
2018-06-13T00:08:31.482Z,97.99
2018-06-13T00:09:31.479Z,98.57
2018-06-13T00:10:31.479Z,98.85
2018-06-13T00:11:31.477Z,98.85
2018-06-13T00:12:31.468Z,98.57
2018-06-13T00:13:31.465Z,98.66
2018-06-13T00:14:31.468Z,98.47
2018-06-13T00:15:31.464Z,98.66
2018-06-13T00:16:31.460Z,97.80
2018-06-13T00:17:31.455Z,98.57
2018-06-13T00:18:31.447Z,98.28
2018-06-13T00:19:31.519Z,98.66
2018-06-13T00:20:31.440Z,98.47
2018-06-13T00:21:31.444Z,98.66
2018-06-13T00:22:31.437Z,98.75
2018-06-13T00:23:31.436Z,98.57
2018-06-13T00:24:31.432Z,98.66
2018-06-13T00:25:31.425Z,98.28
2018-06-13T00:26:31.421Z,98.47
2018-06-13T00:27:31.416Z,97.80
2018-06-13T00:28:31.498Z,98.09
2018-06-13T00:29:31.412Z,97.61
2018-06-13T00:30:31.404Z,97.71
2018-06-13T00:31:31.400Z,97.52
2018-06-13T00:32:31.396Z,97.42
2018-06-13T00:33:31.394Z,98.18
2018-06-13T00:34:31.394Z,98.66
2018-06-13T00:35:31.391Z,97.90
2018-06-13T00:36:31.387Z,98.66
2018-06-13T00:37:31.383Z,98.28
2018-06-13T00:38:31.376Z,98.47
2018-06-13T00:39:31.372Z,98.47
2018-06-13T00:40:31.369Z,99.04
2018-06-13T00:41:31.364Z,98.47
2018-06-13T00:42:31.366Z,99.04
2018-06-13T00:43:31.364Z,98.95
2018-06-13T00:44:31.354Z,98.42
2018-06-13T00:45:31.351Z,99.04
2018-06-13T00:46:31.352Z,98.66
2018-06-13T00:47:31.347Z,99.33
2018-06-13T00:48:31.344Z,99.43
2018-06-13T00:49:31.340Z,99.24
2018-06-13T00:50:31.333Z,99.04
2018-06-13T00:51:31.328Z,99.14
2018-06-13T00:52:31.325Z,99.43
2018-06-13T00:53:31.321Z,99.24
2018-06-13T00:54:31.323Z,98.95
2018-06-13T00:55:31.318Z,99.24
2018-06-13T00:56:31.316Z,99.04
2018-06-13T00:57:31.313Z,99.24
2018-06-13T00:58:31.305Z,99.33
2018-06-13T00:59:31.300Z,99.04
2018-06-13T01:00:31.302Z,99.24
2018-06-13T01:01:31.299Z,99.24
2018-06-13T01:02:31.291Z,99.04
2018-06-13T01:03:31.293Z,98.75
2018-06-13T01:04:31.283Z,98.75
2018-06-13T01:05:31.279Z,98.95
2018-06-13T01:06:31.281Z,98.47
2018-06-13T01:07:31.276Z,99.04
2018-06-13T01:08:31.273Z,99.24
2018-06-13T01:09:31.269Z,99.24
2018-06-13T01:10:31.262Z,99.24
2018-06-13T01:11:31.258Z,99.43
2018-06-13T01:12:31.256Z,99.04
2018-06-13T01:13:31.251Z,99.14
2018-06-13T01:14:31.254Z,98.85
2018-06-13T01:15:31.248Z,99.43
2018-06-13T01:16:31.243Z,99.04
2018-06-13T01:17:31.237Z,98.75
2018-06-13T01:18:31.239Z,98.95
2018-06-13T01:19:31.235Z,99.14
2018-06-13T01:20:31.231Z,98.85
2018-06-13T01:21:31.229Z,98.28
2018-06-13T01:22:31.221Z,98.28
2018-06-13T01:23:31.216Z,98.95
2018-06-13T01:24:31.213Z,98.28
2018-06-13T01:25:31.209Z,99.04
2018-06-13T01:26:31.211Z,98.75
2018-06-13T01:27:31.207Z,98.61
2018-06-13T01:28:31.205Z,98.81
2018-06-13T01:29:31.202Z,98.81
2018-06-13T01:30:31.193Z,98.66
2018-06-13T01:31:31.189Z,99.00
2018-06-13T01:32:31.190Z,99.19
2018-06-13T01:33:31.189Z,99.00
2018-06-13T01:34:31.180Z,99.38
2018-06-13T01:35:31.176Z,99.48
2018-06-13T01:36:31.173Z,99.48
2018-06-13T01:37:31.170Z,99.48
2018-06-13T01:38:31.171Z,98.71
2018-06-13T01:39:31.166Z,98.52
2018-06-13T01:40:31.165Z,98.52
2018-06-13T01:41:31.162Z,98.71
2018-06-13T01:42:31.153Z,97.75
2018-06-13T01:43:31.152Z,97.56
2018-06-13T01:44:31.146Z,97.75
2018-06-13T01:45:31.143Z,97.75
2018-06-13T01:46:31.144Z,98.04
2018-06-13T01:47:31.141Z,97.66
2018-06-13T01:48:31.136Z,98.14
2018-06-13T01:49:31.129Z,98.24
2018-06-13T01:50:31.131Z,98.90
2018-06-13T01:51:31.127Z,98.43
2018-06-13T01:52:31.124Z,98.71
2018-06-13T01:53:31.122Z,98.52
2018-06-13T01:54:31.113Z,98.71
2018-06-13T01:55:31.109Z,98.61
2018-06-13T01:56:31.107Z,98.43
2018-06-13T01:57:31.104Z,98.52
2018-06-13T01:58:31.105Z,98.61
2018-06-13T01:59:31.102Z,98.14
2018-06-13T02:00:31.097Z,97.95
2018-06-13T02:01:31.096Z,97.95
2018-06-13T02:02:31.087Z,98.52
2018-06-13T02:03:31.083Z,98.33
2018-06-13T02:04:31.086Z,98.71
2018-06-13T02:05:31.083Z,98.33
2018-06-13T02:06:31.074Z,98.90
2018-06-13T02:07:31.071Z,98.90
2018-06-13T02:08:31.067Z,99.38
2018-06-13T02:09:31.065Z,99.00
2018-06-13T02:10:31.067Z,99.29
2018-06-13T02:11:31.064Z,99.10
2018-06-13T02:12:31.060Z,99.48
2018-06-13T02:13:31.057Z,99.38
2018-06-13T02:14:31.049Z,99.00
2018-06-13T02:15:31.046Z,99.29
2018-06-13T02:16:31.041Z,99.29
2018-06-13T02:17:31.039Z,99.19
2018-06-13T02:18:31.040Z,99.19
2018-06-13T02:19:31.036Z,99.48
2018-06-13T02:20:31.029Z,99.48
2018-06-13T02:21:31.029Z,99.67
2018-06-13T02:22:31.032Z,99.38
2018-06-13T02:23:31.022Z,99.48
2018-06-13T02:24:31.021Z,99.29
2018-06-13T02:25:31.020Z,99.48
2018-06-13T02:26:31.011Z,99.48
2018-06-13T02:27:31.006Z,99.19
2018-06-13T02:28:31.011Z,99.00
2018-06-13T02:29:31.000Z,99.29
2018-06-13T02:30:31.008Z,99.29
2018-06-13T02:31:30.998Z,99.29
2018-06-13T02:32:30.994Z,98.90
2018-06-13T02:33:30.992Z,99.48
2018-06-13T02:34:30.984Z,99.10
2018-06-13T02:35:30.979Z,99.48
2018-06-13T02:36:30.981Z,99.48
2018-06-13T02:37:30.978Z,99.00
2018-06-13T02:38:30.970Z,98.90
2018-06-13T02:39:30.967Z,99.38
2018-06-13T02:40:30.964Z,99.00
2018-06-13T02:41:30.961Z,98.81
2018-06-13T02:42:30.963Z,98.81
2018-06-13T02:43:30.958Z,98.61
2018-06-13T02:44:30.955Z,98.43
2018-06-13T02:45:30.952Z,99.48
2018-06-13T02:46:30.945Z,99.00
2018-06-13T02:47:30.943Z,99.48
2018-06-13T02:48:30.937Z,99.67
2018-06-13T02:49:30.935Z,99.29
2018-06-13T02:50:30.937Z,99.38
2018-06-13T02:51:30.933Z,99.19
2018-06-13T02:52:30.925Z,99.10
2018-06-13T02:53:30.923Z,99.48
2018-06-13T02:54:30.923Z,99.29
2018-06-13T02:55:30.921Z,99.29
2018-06-13T02:56:30.916Z,99.10
2018-06-13T02:57:30.913Z,99.10
2018-06-13T02:58:30.906Z,99.48
2018-06-13T02:59:30.902Z,99.19
2018-06-13T03:00:30.899Z,99.29
2018-06-13T03:01:30.895Z,99.38
2018-06-13T03:02:30.898Z,98.90
2018-06-13T03:03:30.892Z,98.90
2018-06-13T03:04:30.890Z,98.43
2018-06-13T03:05:30.889Z,98.61
2018-06-13T03:06:30.881Z,98.71
2018-06-13T03:07:30.876Z,98.52
2018-06-13T03:08:30.878Z,98.52
2018-06-13T03:09:30.875Z,98.71
2018-06-13T03:10:30.866Z,98.71
2018-06-13T03:11:30.864Z,98.33
2018-06-13T03:12:30.858Z,98.52
2018-06-13T03:13:30.856Z,98.71
2018-06-13T03:14:30.857Z,98.61
2018-06-13T03:15:30.857Z,98.61
2018-06-13T03:16:30.853Z,98.38
2018-06-13T03:17:30.847Z,98.66
2018-06-13T03:18:30.843Z,98.52
2018-06-13T03:19:30.835Z,98.71
2018-06-13T03:20:30.832Z,98.33
2018-06-13T03:21:30.830Z,98.52
2018-06-13T03:22:30.832Z,97.85
2018-06-13T03:23:30.827Z,97.66
2018-06-13T03:24:30.821Z,97.56
2018-06-13T03:25:30.816Z,96.89
2018-06-13T03:26:30.818Z,96.80
2018-06-13T03:27:30.815Z,96.99
2018-06-13T03:28:30.811Z,96.22
2018-06-13T03:29:30.808Z,96.32
2018-06-13T03:30:30.800Z,95.36
2018-06-13T03:31:30.797Z,95.84
2018-06-13T03:32:30.793Z,95.94
2018-06-13T03:33:30.790Z,95.12
2018-06-13T03:34:30.794Z,95.22
2018-06-13T03:35:30.788Z,94.84
2018-06-13T03:36:30.794Z,94.84
2018-06-13T03:37:30.782Z,94.84
2018-06-13T03:38:30.774Z,94.65
2018-06-13T03:39:30.770Z,94.55
2018-06-13T03:40:30.772Z,94.55
2018-06-13T03:41:30.770Z,94.55
2018-06-13T03:42:30.761Z,94.65
2018-06-13T03:43:30.759Z,94.93
2018-06-13T03:44:30.754Z,94.45
2018-06-13T03:45:30.751Z,94.07
2018-06-13T03:46:30.756Z,94.84
2018-06-13T03:47:30.747Z,94.36
2018-06-13T03:48:30.741Z,94.07
2018-06-13T03:49:30.738Z,93.50
2018-06-13T03:50:30.746Z,94.45
2018-06-13T03:51:30.735Z,93.88
2018-06-13T03:52:30.732Z,93.98
2018-06-13T03:53:30.729Z,94.65
2018-06-13T03:54:30.722Z,94.36
2018-06-13T03:55:30.718Z,94.65
2018-06-13T03:56:30.720Z,94.84
2018-06-13T03:57:30.717Z,94.74
2018-06-13T03:58:30.712Z,94.65
2018-06-13T03:59:30.705Z,94.74
2018-06-13T04:00:30.704Z,94.55
2018-06-13T04:01:30.700Z,93.98
2018-06-13T04:02:30.704Z,94.17
2018-06-13T04:03:30.700Z,94.74
2018-06-13T04:04:30.695Z,94.55
2018-06-13T04:05:30.696Z,94.74
2018-06-13T04:06:30.687Z,94.74
2018-06-13T04:07:30.683Z,94.93
2018-06-13T04:08:30.678Z,94.84
2018-06-13T04:09:30.677Z,94.84
2018-06-13T04:10:30.677Z,94.74
2018-06-13T04:11:30.672Z,94.55
2018-06-13T04:12:30.666Z,94.45
2018-06-13T04:13:30.663Z,94.84
2018-06-13T04:14:30.664Z,93.69
2018-06-13T04:15:30.661Z,93.88
2018-06-13T04:16:30.659Z,93.45
2018-06-13T04:17:30.656Z,94.02
2018-06-13T04:18:30.647Z,93.35
2018-06-13T04:19:30.644Z,93.45
2018-06-13T04:20:30.642Z,93.35
2018-06-13T04:21:30.638Z,93.26
2018-06-13T04:22:30.672Z,92.87
2018-06-13T04:23:30.637Z,93.16
2018-06-13T04:24:30.632Z,93.74
2018-06-13T04:25:30.631Z,93.35
2018-06-13T04:26:30.624Z,93.16
2018-06-13T04:27:30.619Z,93.54
2018-06-13T04:28:30.621Z,93.64
2018-06-13T04:29:30.617Z,93.35
2018-06-13T04:30:30.612Z,93.35
2018-06-13T04:31:30.607Z,94.12
2018-06-13T04:32:30.604Z,93.35
2018-06-13T04:33:30.602Z,93.16
2018-06-13T04:34:30.605Z,93.26
2018-06-13T04:35:30.602Z,93.45
2018-06-13T04:36:30.598Z,93.35
2018-06-13T04:37:30.595Z,92.21
2018-06-13T04:38:30.588Z,92.87
2018-06-13T04:39:30.584Z,92.01
2018-06-13T04:40:30.581Z,91.53
2018-06-13T04:41:30.579Z,92.11
2018-06-13T04:42:30.580Z,91.63
2018-06-13T04:43:30.577Z,91.44
2018-06-13T04:44:30.570Z,92.01
2018-06-13T04:45:30.567Z,92.11
2018-06-13T04:46:30.571Z,92.11
2018-06-13T04:47:30.565Z,91.53
2018-06-13T04:48:30.563Z,91.34
2018-06-13T04:49:30.561Z,92.35
2018-06-13T04:50:30.552Z,91.39
2018-06-13T04:51:30.548Z,91.86
2018-06-13T04:52:30.545Z,91.58
2018-06-13T04:53:30.543Z,90.91
2018-06-13T04:54:30.545Z,90.47
2018-06-13T04:55:30.542Z,89.90
2018-06-13T04:56:30.539Z,89.80
2018-06-13T04:57:30.538Z,88.84
2018-06-13T04:58:30.530Z,89.37
2018-06-13T04:59:30.528Z,88.22
2018-06-13T05:00:30.530Z,88.22
2018-06-13T05:01:30.527Z,87.93
2018-06-13T05:02:30.521Z,87.74
2018-06-13T05:03:30.520Z,86.97
2018-06-13T05:04:30.516Z,86.97
2018-06-13T05:05:30.514Z,86.83
2018-06-13T05:06:30.517Z,87.31
2018-06-13T05:07:30.513Z,88.12
2018-06-13T05:08:30.512Z,88.22
2018-06-13T05:09:30.509Z,88.31
2018-06-13T05:10:30.503Z,87.55
2018-06-13T05:11:30.500Z,87.26
2018-06-13T05:12:30.498Z,87.55
2018-06-13T05:13:30.496Z,87.45
2018-06-13T05:14:30.500Z,87.16
2018-06-13T05:15:30.496Z,86.88
2018-06-13T05:16:30.489Z,87.21
2018-06-13T05:17:30.487Z,87.35
2018-06-13T05:18:30.491Z,87.21
2018-06-13T05:19:30.488Z,87.07
2018-06-13T05:20:30.485Z,87.41
2018-06-13T05:21:30.483Z,87.70
2018-06-13T05:22:30.479Z,87.12
2018-06-13T05:23:30.474Z,86.74
2018-06-13T05:24:30.471Z,86.64
2018-06-13T05:25:30.470Z,87.12
2018-06-13T05:26:30.474Z,87.79
2018-06-13T05:27:30.470Z,87.88
2018-06-13T05:28:30.468Z,87.21
2018-06-13T05:29:30.467Z,87.70
2018-06-13T05:30:30.459Z,87.60
2018-06-13T05:31:30.457Z,88.37
2018-06-13T05:32:30.460Z,88.08
2018-06-13T05:33:30.458Z,88.17
2018-06-13T05:34:30.509Z,87.98
2018-06-13T05:35:30.448Z,88.37
2018-06-13T05:36:30.446Z,87.41
2018-06-13T05:37:30.444Z,87.41
2018-06-13T05:38:30.447Z,87.21
2018-06-13T05:39:30.444Z,87.60
2018-06-13T05:40:30.442Z,87.41
2018-06-13T05:41:30.441Z,87.79
2018-06-13T05:42:30.434Z,87.64
2018-06-13T05:43:30.431Z,88.27
2018-06-13T05:44:30.430Z,87.41
2018-06-13T05:45:30.431Z,87.26
2018-06-13T05:46:30.431Z,87.16
2018-06-13T05:47:30.428Z,86.78
2018-06-13T05:48:30.421Z,86.97
2018-06-13T05:49:30.419Z,86.11
2018-06-13T05:50:30.423Z,86.11
2018-06-13T05:51:30.421Z,85.82
2018-06-13T05:52:30.417Z,86.58
2018-06-13T05:53:30.416Z,86.63
2018-06-13T05:54:30.412Z,85.72
2018-06-13T05:55:30.413Z,85.77
2018-06-13T05:56:30.406Z,85.77
2018-06-13T05:57:30.406Z,85.48
2018-06-13T05:58:30.408Z,85.48
2018-06-13T05:59:30.405Z,85.48
2018-06-13T06:00:30.404Z,84.81
2018-06-13T06:01:30.476Z,84.61
2018-06-13T06:02:30.396Z,84.71
2018-06-13T06:03:30.393Z,84.33
2018-06-13T06:04:30.396Z,84.71
2018-06-13T06:05:30.395Z,84.95
2018-06-13T06:06:30.388Z,84.42
2018-06-13T06:07:30.386Z,85.14
2018-06-13T06:08:30.385Z,84.95
2018-06-13T06:09:30.384Z,84.95
2018-06-13T06:10:30.556Z,84.66
2018-06-13T06:11:30.386Z,84.37
2018-06-13T06:12:30.389Z,84.18
2018-06-13T06:13:30.384Z,84.56
2018-06-13T06:14:30.378Z,84.18
2018-06-13T06:15:30.375Z,83.51
2018-06-13T06:16:30.375Z,83.64
2018-06-13T06:17:30.374Z,83.84
2018-06-13T06:18:30.377Z,84.03
2018-06-13T06:19:30.375Z,83.45
2018-06-13T06:20:30.372Z,83.74
2018-06-13T06:21:30.369Z,83.54
2018-06-13T06:22:30.373Z,83.36
2018-06-13T06:23:30.428Z,83.31
2018-06-13T06:24:30.372Z,83.26
2018-06-13T06:25:30.372Z,83.45
2018-06-13T06:26:30.365Z,83.26
2018-06-13T06:27:30.364Z,83.51
2018-06-13T06:28:30.365Z,83.45
2018-06-13T06:29:30.362Z,83.26
2018-06-13T06:30:30.365Z,83.26
2018-06-13T06:31:30.363Z,83.16
2018-06-13T06:32:30.365Z,82.87
2018-06-13T06:33:30.363Z,82.40
2018-06-13T06:34:30.357Z,82.87
2018-06-13T06:35:30.355Z,82.59
2018-06-13T06:36:30.360Z,82.53
2018-06-13T06:37:30.359Z,81.57
2018-06-13T06:38:30.355Z,81.38
2018-06-13T06:39:30.352Z,81.38
2018-06-13T06:40:30.353Z,81.38
2018-06-13T06:41:30.351Z,81.09
2018-06-13T06:42:30.355Z,80.42
2018-06-13T06:43:30.355Z,80.04
2018-06-13T06:44:30.359Z,80.13
2018-06-13T06:45:30.355Z,80.13
2018-06-13T06:46:30.350Z,79.36
2018-06-13T06:47:30.348Z,78.59
2018-06-13T06:48:30.349Z,79.46
2018-06-13T06:49:30.349Z,79.60
2018-06-13T06:50:30.352Z,78.88
2018-06-13T06:51:30.352Z,78.53
2018-06-13T06:52:30.348Z,79.27
2018-06-13T06:53:30.347Z,78.98
2018-06-13T06:54:30.352Z,78.88
2018-06-13T06:55:30.380Z,78.69
2018-06-13T06:56:30.353Z,79.27
2018-06-13T06:57:30.352Z,79.46
2018-06-13T06:58:30.348Z,79.27
2018-06-13T06:59:30.346Z,79.75
2018-06-13T07:00:30.346Z,79.55
2018-06-13T07:01:30.347Z,79.94
2018-06-13T07:02:30.352Z,80.04
2018-06-13T07:03:30.350Z,79.84
2018-06-13T07:04:30.350Z,79.94
2018-06-13T07:05:30.351Z,79.75
2018-06-13T07:06:30.346Z,79.99
2018-06-13T07:07:30.345Z,79.75
2018-06-13T07:08:30.351Z,79.90
2018-06-13T07:09:30.350Z,80.47
2018-06-13T07:10:30.346Z,80.09
2018-06-13T07:11:30.545Z,80.53
2018-06-13T07:12:30.345Z,81.30
2018-06-13T07:13:30.344Z,81.59
2018-06-13T07:14:30.350Z,80.91
2018-06-13T07:15:30.346Z,81.40
2018-06-13T07:16:30.346Z,81.10
2018-06-13T07:17:30.346Z,81.87
2018-06-13T07:18:30.342Z,82.12
2018-06-13T07:19:30.341Z,82.03
2018-06-13T07:20:30.341Z,81.45
2018-06-13T07:21:30.340Z,81.54
2018-06-13T07:22:30.344Z,82.03
2018-06-13T07:23:30.341Z,82.03
2018-06-13T07:24:30.338Z,82.98
2018-06-13T07:25:30.335Z,82.79
2018-06-13T07:26:30.340Z,82.51
2018-06-13T07:27:30.337Z,82.89
2018-06-13T07:28:30.336Z,82.94
2018-06-13T07:29:30.336Z,83.23
2018-06-13T07:30:30.330Z,83.47
2018-06-13T07:31:30.328Z,83.27
2018-06-13T07:32:30.327Z,82.94
2018-06-13T07:33:30.325Z,82.94
2018-06-13T07:34:30.328Z,83.14
2018-06-13T07:35:30.326Z,83.42
2018-06-13T07:36:30.327Z,83.23
2018-06-13T07:37:30.325Z,83.27
2018-06-13T07:38:30.319Z,83.08
2018-06-13T07:39:30.316Z,83.08
2018-06-13T07:40:30.320Z,82.79
2018-06-13T07:41:30.367Z,83.04
2018-06-13T07:42:30.312Z,82.46
2018-06-13T07:43:30.310Z,82.46
2018-06-13T07:44:30.308Z,82.46
2018-06-13T07:45:30.308Z,83.33
2018-06-13T07:46:30.310Z,82.75
2018-06-13T07:47:30.308Z,83.42
2018-06-13T07:48:30.307Z,83.42
2018-06-13T07:49:30.304Z,82.94
2018-06-13T07:50:30.298Z,83.42
2018-06-13T07:51:30.296Z,83.91
2018-06-13T07:52:30.300Z,83.14
2018-06-13T07:53:30.296Z,82.94
2018-06-13T07:54:30.299Z,83.23
2018-06-13T07:55:30.295Z,83.52
2018-06-13T07:56:30.288Z,83.71
2018-06-13T07:57:30.286Z,84.19
2018-06-13T07:58:30.290Z,83.65
2018-06-13T07:59:30.287Z,83.47
2018-06-13T08:00:30.287Z,84.14
2018-06-13T08:01:30.283Z,83.56
2018-06-13T08:02:30.278Z,83.08
2018-06-13T08:03:30.276Z,82.89
2018-06-13T08:04:30.273Z,83.27
2018-06-13T08:05:30.272Z,82.98
2018-06-13T08:06:30.274Z,82.98
2018-06-13T08:07:30.272Z,82.41
2018-06-13T08:08:30.381Z,82.45
2018-06-13T08:09:30.271Z,81.78
2018-06-13T08:10:30.264Z,81.01
2018-06-13T08:11:30.261Z,81.01
2018-06-13T08:12:30.266Z,80.34
2018-06-13T08:13:30.264Z,80.73
2018-06-13T08:14:30.258Z,80.82
2018-06-13T08:15:30.256Z,80.91
2018-06-13T08:16:30.255Z,80.73
2018-06-13T08:17:30.255Z,80.53
2018-06-13T08:18:30.257Z,81.30
2018-06-13T08:19:30.255Z,81.78
2018-06-13T08:20:30.254Z,82.07
2018-06-13T08:21:30.253Z,81.59
2018-06-13T08:22:30.247Z,81.30
2018-06-13T08:23:30.246Z,80.15
2018-06-13T08:24:30.244Z,79.57
2018-06-13T08:25:30.248Z,79.28
2018-06-13T08:26:30.251Z,79.76
2018-06-13T08:27:30.249Z,79.47
2018-06-13T08:28:30.240Z,78.90
2018-06-13T08:29:30.239Z,78.70
2018-06-13T08:30:30.242Z,79.38
2018-06-13T08:31:30.240Z,79.38
2018-06-13T08:32:30.238Z,79.38
2018-06-13T08:33:30.238Z,79.38
2018-06-13T08:34:30.232Z,79.38
2018-06-13T08:35:30.230Z,79.28
2018-06-13T08:36:30.228Z,79.67
2018-06-13T08:37:30.228Z,79.86
2018-06-13T08:38:30.232Z,79.76
2018-06-13T08:39:30.230Z,79.57
2018-06-13T08:40:30.229Z,80.05
2018-06-13T08:41:30.228Z,79.86
2018-06-13T08:42:30.223Z,81.01
2018-06-13T08:43:30.220Z,80.43
2018-06-13T08:44:30.224Z,79.96
2018-06-13T08:45:30.222Z,80.43
2018-06-13T08:46:30.217Z,80.05
2018-06-13T08:47:30.214Z,80.24
2018-06-13T08:48:30.267Z,80.15
2018-06-13T08:49:30.215Z,80.34
2018-06-13T08:50:30.215Z,80.15
2018-06-13T08:51:30.214Z,80.15
2018-06-13T08:52:30.212Z,79.96
2018-06-13T08:53:30.213Z,79.57
2018-06-13T08:54:30.207Z,79.47
2018-06-13T08:55:30.203Z,80.09
2018-06-13T08:56:30.202Z,79.52
2018-06-13T08:57:30.202Z,79.32
2018-06-13T08:58:30.206Z,79.71
2018-06-13T08:59:30.204Z,79.32
2018-06-13T09:00:30.197Z,79.42
2018-06-13T09:01:30.197Z,79.32
2018-06-13T09:02:30.201Z,79.03
2018-06-13T09:03:30.201Z,78.94
2018-06-13T09:04:30.197Z,79.13
2018-06-13T09:05:30.197Z,79.32
2018-06-13T09:06:30.192Z,80.04
2018-06-13T09:07:30.192Z,79.90
2018-06-13T09:08:30.191Z,79.99
2018-06-13T09:09:30.189Z,79.90
2018-06-13T09:10:30.195Z,79.61
2018-06-13T09:11:30.192Z,79.09
2018-06-13T09:12:30.195Z,78.23
2018-06-13T09:13:30.191Z,79.38
2018-06-13T09:14:30.184Z,79.19
2018-06-13T09:15:30.182Z,79.67
2018-06-13T09:16:30.186Z,80.15
2018-06-13T09:17:30.186Z,79.80
2018-06-13T09:18:30.181Z,80.66
2018-06-13T09:19:30.178Z,80.24
2018-06-13T09:20:30.177Z,80.43
2018-06-13T09:21:30.176Z,80.24
2018-06-13T09:22:30.236Z,80.15
2018-06-13T09:23:30.178Z,80.91
2018-06-13T09:24:30.179Z,80.24
2018-06-13T09:25:30.177Z,80.15
2018-06-13T09:26:30.171Z,80.15
2018-06-13T09:27:30.171Z,80.24
2018-06-13T09:28:30.169Z,80.24
2018-06-13T09:29:30.168Z,80.15
2018-06-13T09:30:30.171Z,80.82
2018-06-13T09:31:30.170Z,80.15
2018-06-13T09:32:30.164Z,79.96
2018-06-13T09:33:30.164Z,79.86
2018-06-13T09:34:30.166Z,80.05
2018-06-13T09:35:30.166Z,80.24
2018-06-13T09:36:30.165Z,79.80
2018-06-13T09:37:30.290Z,79.99
2018-06-13T09:38:30.159Z,80.38
2018-06-13T09:39:30.156Z,80.22
2018-06-13T09:40:30.156Z,80.04
2018-06-13T09:41:30.156Z,80.04
2018-06-13T09:42:30.159Z,79.65
2018-06-13T09:43:30.161Z,79.36
2018-06-13T09:44:30.157Z,78.34
2018-06-13T09:45:30.156Z,78.34
2018-06-13T09:46:30.151Z,78.67
2018-06-13T09:47:30.149Z,78.00
2018-06-13T09:48:30.156Z,77.71
2018-06-13T09:49:30.156Z,77.36
2018-06-13T09:50:30.152Z,76.59
2018-06-13T09:51:30.149Z,75.76
2018-06-13T09:52:30.150Z,75.54
2018-06-13T09:53:30.149Z,74.19
2018-06-13T09:54:30.155Z,74.38
2018-06-13T09:55:30.155Z,74.29
2018-06-13T09:56:30.156Z,74.67
2018-06-13T09:57:30.158Z,74.86
2018-06-13T09:58:30.152Z,74.57
2018-06-13T09:59:30.151Z,74.86
2018-06-13T10:00:30.150Z,74.09
2018-06-13T10:01:30.152Z,73.80
2018-06-13T10:02:30.158Z,73.71
2018-06-13T10:03:30.157Z,74.03
2018-06-13T10:04:30.195Z,73.36
2018-06-13T10:05:30.155Z,73.07
2018-06-13T10:06:30.160Z,73.07
2018-06-13T10:07:30.159Z,73.01
2018-06-13T10:08:30.163Z,72.14
2018-06-13T10:09:30.162Z,72.72
2018-06-13T10:10:30.159Z,72.27
2018-06-13T10:11:30.160Z,71.95
2018-06-13T10:12:30.161Z,71.85
2018-06-13T10:13:30.163Z,72.43
2018-06-13T10:14:30.170Z,72.53
2018-06-13T10:15:30.169Z,71.34
2018-06-13T10:16:30.172Z,70.95
2018-06-13T10:17:30.174Z,71.20
2018-06-13T10:18:30.171Z,71.69
2018-06-13T10:19:30.171Z,71.40
2018-06-13T10:20:30.176Z,71.94
2018-06-13T10:21:30.179Z,72.23
2018-06-13T10:22:30.174Z,73.38
2018-06-13T10:23:30.175Z,72.86
2018-06-13T10:24:30.175Z,73.63
2018-06-13T10:25:30.236Z,74.21
2018-06-13T10:26:30.181Z,74.85
2018-06-13T10:27:30.181Z,74.65
2018-06-13T10:28:30.183Z,74.46
2018-06-13T10:29:30.183Z,75.04
2018-06-13T10:30:30.179Z,75.42
2018-06-13T10:31:30.179Z,76.09
2018-06-13T10:32:30.178Z,77.06
2018-06-13T10:33:30.180Z,77.53
2018-06-13T10:34:30.186Z,77.53
2018-06-13T10:35:30.185Z,77.69
2018-06-13T10:36:30.180Z,78.55
2018-06-13T10:37:30.180Z,78.84
2018-06-13T10:38:30.185Z,79.13
2018-06-13T10:39:30.184Z,78.55
2018-06-13T10:40:30.182Z,78.45
2018-06-13T10:41:30.183Z,78.65
2018-06-13T10:42:30.177Z,78.55
2018-06-13T10:43:30.177Z,79.13
2018-06-13T10:44:30.188Z,79.71
2018-06-13T10:45:30.176Z,80.09
2018-06-13T10:46:30.180Z,79.71
2018-06-13T10:47:30.179Z,80.22
2018-06-13T10:48:30.221Z,80.28
2018-06-13T10:49:30.179Z,79.94
2018-06-13T10:50:30.174Z,80.32
2018-06-13T10:51:30.172Z,80.32
2018-06-13T10:52:30.176Z,79.17
2018-06-13T10:53:30.178Z,78.30
2018-06-13T10:54:30.172Z,77.92
2018-06-13T10:55:30.194Z,77.48
2018-06-13T10:56:30.170Z,76.90
2018-06-13T10:57:30.170Z,77.09
2018-06-13T10:58:30.175Z,76.52
2018-06-13T10:59:30.175Z,76.61
2018-06-13T11:00:30.178Z,76.32
2018-06-13T11:01:30.173Z,75.84
2018-06-13T11:02:30.169Z,75.94
2018-06-13T11:03:30.171Z,76.71
2018-06-13T11:04:30.170Z,76.42
2018-06-13T11:05:30.169Z,77.33
2018-06-13T11:06:30.190Z,77.61
2018-06-13T11:07:30.178Z,77.13
2018-06-13T11:08:30.170Z,76.75
2018-06-13T11:09:30.174Z,76.56
2018-06-13T11:10:30.174Z,76.84
2018-06-13T11:11:30.174Z,77.23
2018-06-13T11:12:30.173Z,76.42
2018-06-13T11:13:30.174Z,75.94
2018-06-13T11:14:30.170Z,76.09
2018-06-13T11:15:30.169Z,76.48
2018-06-13T11:16:30.178Z,76.29
2018-06-13T11:17:30.170Z,76.48
2018-06-13T11:18:30.176Z,76.57
2018-06-13T11:19:30.175Z,77.15
2018-06-13T11:20:30.174Z,77.01
2018-06-13T11:21:30.174Z,76.77
2018-06-13T11:22:30.169Z,77.59
2018-06-13T11:23:30.169Z,77.31
2018-06-13T11:24:30.172Z,77.34
2018-06-13T11:25:30.172Z,77.31
2018-06-13T11:26:30.172Z,77.11
2018-06-13T11:27:30.167Z,76.64
2018-06-13T11:28:30.168Z,77.01
2018-06-13T11:29:30.167Z,76.54
2018-06-13T11:30:30.172Z,76.82
2018-06-13T11:31:30.234Z,77.01
2018-06-13T11:32:30.169Z,76.54
2018-06-13T11:33:30.169Z,76.67
2018-06-13T11:34:30.165Z,76.39
2018-06-13T11:35:30.164Z,76.67
2018-06-13T11:36:30.163Z,76.39
2018-06-13T11:37:30.162Z,76.57
2018-06-13T11:38:30.166Z,77.38
2018-06-13T11:39:30.165Z,77.48
2018-06-13T11:40:30.160Z,77.67
2018-06-13T11:41:30.206Z,77.86
2018-06-13T11:42:30.164Z,76.90
2018-06-13T11:43:30.165Z,75.40
2018-06-13T11:44:30.167Z,74.73
2018-06-13T11:45:30.164Z,75.11
2018-06-13T11:46:30.159Z,74.34
2018-06-13T11:47:30.157Z,74.19
2018-06-13T11:48:30.158Z,73.99
2018-06-13T11:49:30.158Z,74.19
2018-06-13T11:50:30.163Z,74.90
2018-06-13T11:51:30.163Z,74.51
2018-06-13T11:52:30.165Z,73.39
2018-06-13T11:53:30.182Z,71.76
2018-06-13T11:54:30.159Z,72.08
2018-06-13T11:55:30.159Z,72.08
2018-06-13T11:56:30.170Z,70.96
2018-06-13T11:57:30.165Z,69.61
2018-06-13T11:58:30.162Z,68.97
2018-06-13T11:59:30.162Z,68.29
2018-06-13T12:00:30.179Z,67.94
2018-06-13T12:01:30.166Z,66.97
2018-06-13T12:02:30.174Z,66.33
2018-06-13T12:03:30.174Z,65.88
2018-06-13T12:04:30.176Z,64.92
2018-06-13T12:05:30.180Z,64.31
2018-06-13T12:06:30.176Z,64.59
2018-06-13T12:07:30.178Z,64.76
2018-06-13T12:08:30.183Z,65.24
2018-06-13T12:09:30.187Z,65.01
2018-06-13T12:10:30.191Z,65.30
2018-06-13T12:11:30.243Z,65.11
2018-06-13T12:12:30.191Z,64.53
2018-06-13T12:13:30.193Z,63.92
2018-06-13T12:14:30.202Z,64.69
2018-06-13T12:15:30.204Z,65.37
2018-06-13T12:16:30.208Z,66.24
2018-06-13T12:17:30.209Z,66.97
2018-06-13T12:18:30.207Z,66.78
2018-06-13T12:19:30.212Z,67.07
2018-06-13T12:20:30.212Z,67.16
2018-06-13T12:21:30.214Z,67.13
2018-06-13T12:22:30.230Z,67.81
2018-06-13T12:23:30.223Z,67.71
2018-06-13T12:24:30.225Z,68.38
2018-06-13T12:25:30.229Z,68.68
2018-06-13T12:26:30.224Z,69.73
2018-06-13T12:27:30.226Z,68.26
2018-06-13T12:28:30.255Z,68.35
2018-06-13T12:29:30.237Z,68.54
2018-06-13T12:30:30.231Z,68.84
2018-06-13T12:31:30.233Z,69.73
2018-06-13T12:32:30.234Z,68.29
2018-06-13T12:33:30.235Z,68.52
2018-06-13T12:34:30.242Z,68.04
2018-06-13T12:35:30.242Z,67.65
2018-06-13T12:36:30.244Z,67.07
2018-06-13T12:37:30.253Z,66.52
2018-06-13T12:38:30.243Z,66.52
2018-06-13T12:39:30.245Z,66.36
2018-06-13T12:40:30.246Z,66.36
2018-06-13T12:41:30.248Z,66.94
2018-06-13T12:42:30.254Z,66.08
2018-06-13T12:43:30.257Z,66.69
2018-06-13T12:44:30.253Z,67.33
2018-06-13T12:45:30.289Z,67.14
2018-06-13T12:46:30.263Z,66.85
2018-06-13T12:47:30.264Z,66.08
2018-06-13T12:48:30.265Z,67.04
2018-06-13T12:49:30.269Z,66.66
2018-06-13T12:50:30.266Z,66.59
2018-06-13T12:51:30.268Z,67.07
2018-06-13T12:52:30.270Z,66.49